CFG2206 EDDN-EDDH
Flight info
| Callsign | CFG2206 |
|---|---|
| Flight time | N/A |
| Altitude | 30000 |
| Route | ERETO1G ERETO DCT LONLI M726 LASTO M852 LARET/N0415F340 M852 HLZ Z990 DIRBO/N0349F230 T902 RARUP RARUP6A |
| Aircraft | A20N/M-SDE2E3FGHIRWXY/LB1 |
Departure
| Time | 2026-05-07 13:45 |
|---|---|
| Airport | Nuremberg Airport (EDDN) |
Arrival
| Time | N/A |
|---|---|
| Airport | Hamburg Helmut Schmidt Airport (EDDH) |
| Time | Latitude | Longitude | Altitude | Speed | Heading |
|---|---|---|---|---|---|
| 2026-05-07 13:14 | 49.49466 | 11.08227 | 1034 ft | 0 kts | 188° |
| 2026-05-07 13:32 | 49.49470 | 11.08228 | 1035 ft | 1 kts | 188° |
| 2026-05-07 13:32 | 49.49478 | 11.08230 | 1008 ft | 1 kts | 188° |
| 2026-05-07 13:33 | 49.49486 | 11.08232 | 1008 ft | 2 kts | 188° |
| 2026-05-07 13:33 | 49.49497 | 11.08234 | 1046 ft | 2 kts | 195° |
| 2026-05-07 13:33 | 49.49510 | 11.08238 | 1036 ft | 2 kts | 178° |
| 2026-05-07 13:33 | 49.49522 | 11.08236 | 1037 ft | 2 kts | 162° |
| 2026-05-07 13:34 | 49.49533 | 11.08229 | 1038 ft | 2 kts | 149° |
| 2026-05-07 13:34 | 49.49549 | 11.08205 | 1038 ft | 0 kts | 103° |
| 2026-05-07 13:36 | 49.49546 | 11.08219 | 1038 ft | 3 kts | 109° |
| 2026-05-07 13:37 | 49.49538 | 11.08265 | 1039 ft | 7 kts | 101° |
| 2026-05-07 13:37 | 49.49559 | 11.08347 | 1041 ft | 12 kts | 29° |
| 2026-05-07 13:37 | 49.49626 | 11.08412 | 1042 ft | 12 kts | 76° |
| 2026-05-07 13:37 | 49.49604 | 11.08529 | 1044 ft | 15 kts | 88° |
| 2026-05-07 13:38 | 49.49587 | 11.08734 | 1046 ft | 24 kts | 106° |
| 2026-05-07 13:38 | 49.49555 | 11.09018 | 1049 ft | 30 kts | 117° |
| 2026-05-07 13:38 | 49.49526 | 11.09070 | 1048 ft | 3 kts | 136° |
| 2026-05-07 13:38 | 49.49530 | 11.09090 | 1048 ft | 2 kts | 65° |
| 2026-05-07 13:39 | 49.49539 | 11.09130 | 1049 ft | 7 kts | 76° |
| 2026-05-07 13:39 | 49.49539 | 11.09248 | 1051 ft | 15 kts | 99° |
| 2026-05-07 13:39 | 49.49535 | 11.09333 | 1053 ft | 0 kts | 86° |
| 2026-05-07 13:41 | 49.49537 | 11.09341 | 1053 ft | 3 kts | 78° |
| 2026-05-07 13:41 | 49.49572 | 11.09443 | 1055 ft | 20 kts | 53° |
| 2026-05-07 13:41 | 49.49587 | 11.09470 | 1056 ft | 0 kts | 46° |
| 2026-05-07 13:43 | 49.49590 | 11.09475 | 1055 ft | 4 kts | 45° |
| 2026-05-07 13:44 | 49.49667 | 11.09541 | 1058 ft | 20 kts | 9° |
| 2026-05-07 13:44 | 49.49700 | 11.09515 | 1059 ft | 0 kts | 281° |
| 2026-05-07 13:45 | 49.49701 | 11.09504 | 1058 ft | 9 kts | 281° |
| 2026-05-07 13:45 | 49.49744 | 11.09015 | 1051 ft | 82 kts | 276° |
| 2026-05-07 13:45 | 49.49878 | 11.07759 | 1187 ft | 140 kts | 282° |
| 2026-05-07 13:45 | 49.50053 | 11.06306 | 1926 ft | 139 kts | 284° |
| 2026-05-07 13:46 | 49.50249 | 11.04814 | 2590 ft | 143 kts | 283° |
| 2026-05-07 13:46 | 49.50427 | 11.03249 | 3173 ft | 159 kts | 282° |
| 2026-05-07 13:46 | 49.50586 | 11.01438 | 3769 ft | 177 kts | 275° |
| 2026-05-07 13:46 | 49.50670 | 10.99512 | 4562 ft | 183 kts | 279° |
| 2026-05-07 13:47 | 49.50896 | 10.97703 | 5683 ft | 154 kts | 287° |
| 2026-05-07 13:47 | 49.51196 | 10.96165 | 6352 ft | 167 kts | 285° |
| 2026-05-07 13:47 | 49.51697 | 10.94417 | 6640 ft | 188 kts | 304° |
| 2026-05-07 13:47 | 49.52729 | 10.92998 | 6913 ft | 214 kts | 332° |
| 2026-05-07 13:48 | 49.54275 | 10.92500 | 7060 ft | 247 kts | 358° |
| 2026-05-07 13:48 | 49.55455 | 10.92551 | 7048 ft | 265 kts | 0° |
| 2026-05-07 13:48 | 49.57356 | 10.92671 | 7039 ft | 278 kts | 0° |
| 2026-05-07 13:48 | 49.59288 | 10.92774 | 7040 ft | 273 kts | 359° |
| 2026-05-07 13:49 | 49.61188 | 10.92842 | 7040 ft | 274 kts | 359° |
| 2026-05-07 13:49 | 49.63091 | 10.92886 | 7212 ft | 277 kts | 358° |
| 2026-05-07 13:49 | 49.65050 | 10.92919 | 8009 ft | 278 kts | 358° |
| 2026-05-07 13:49 | 49.66955 | 10.92952 | 9165 ft | 279 kts | 358° |
| 2026-05-07 13:50 | 49.68928 | 10.93055 | 10157 ft | 286 kts | 6° |
| 2026-05-07 13:50 | 49.70873 | 10.94002 | 10752 ft | 310 kts | 27° |
| 2026-05-07 13:50 | 49.73257 | 10.96904 | 11294 ft | 342 kts | 39° |
| 2026-05-07 13:50 | 49.74458 | 10.98536 | 11790 ft | 348 kts | 40° |
| 2026-05-07 13:51 | 49.76291 | 11.01022 | 12716 ft | 351 kts | 39° |
| 2026-05-07 13:51 | 49.78162 | 11.03536 | 13609 ft | 356 kts | 39° |
| 2026-05-07 13:51 | 49.80033 | 11.06029 | 14403 ft | 360 kts | 39° |
| 2026-05-07 13:51 | 49.81923 | 11.08549 | 15239 ft | 365 kts | 40° |
| 2026-05-07 13:52 | 49.83699 | 11.11497 | 15739 ft | 371 kts | 51° |
| 2026-05-07 13:52 | 49.85096 | 11.14872 | 15943 ft | 374 kts | 62° |
| 2026-05-07 13:52 | 49.86205 | 11.18510 | 16030 ft | 374 kts | 64° |
| 2026-05-07 13:52 | 49.87328 | 11.22185 | 16426 ft | 378 kts | 63° |
| 2026-05-07 13:53 | 49.88459 | 11.25846 | 17296 ft | 379 kts | 63° |
| 2026-05-07 13:53 | 49.89878 | 11.29284 | 18042 ft | 381 kts | 46° |
| 2026-05-07 13:53 | 49.91909 | 11.31893 | 18734 ft | 381 kts | 28° |
| 2026-05-07 13:53 | 49.94388 | 11.33416 | 19453 ft | 379 kts | 10° |
| 2026-05-07 13:54 | 49.97012 | 11.33683 | 20174 ft | 379 kts | 353° |
| 2026-05-07 13:54 | 49.99541 | 11.32714 | 20876 ft | 379 kts | 336° |
| 2026-05-07 13:54 | 50.01812 | 11.30577 | 21584 ft | 381 kts | 321° |
| 2026-05-07 13:54 | 50.03810 | 11.27905 | 22266 ft | 385 kts | 317° |
| 2026-05-07 13:55 | 50.05879 | 11.25233 | 22901 ft | 389 kts | 326° |
| 2026-05-07 13:55 | 50.08348 | 11.23399 | 23557 ft | 394 kts | 342° |
| 2026-05-07 13:55 | 50.11034 | 11.22664 | 24115 ft | 398 kts | 357° |
| 2026-05-07 13:55 | 50.13851 | 11.22659 | 24725 ft | 402 kts | 360° |
| 2026-05-07 13:56 | 50.16642 | 11.22679 | 25298 ft | 404 kts | 0° |
| 2026-05-07 13:56 | 50.19459 | 11.22699 | 25827 ft | 407 kts | 0° |
| 2026-05-07 13:56 | 50.22296 | 11.22717 | 26307 ft | 411 kts | 0° |
| 2026-05-07 13:56 | 50.25170 | 11.22734 | 26790 ft | 414 kts | 1° |
| 2026-05-07 13:57 | 50.28043 | 11.22751 | 27272 ft | 417 kts | 1° |
| 2026-05-07 13:57 | 50.30954 | 11.22767 | 27748 ft | 419 kts | 1° |
| 2026-05-07 13:57 | 50.33898 | 11.22783 | 28188 ft | 422 kts | 1° |
| 2026-05-07 13:57 | 50.36852 | 11.22690 | 28628 ft | 425 kts | 356° |
| 2026-05-07 13:58 | 50.39816 | 11.22229 | 29028 ft | 429 kts | 355° |
| 2026-05-07 13:58 | 50.42805 | 11.21770 | 29427 ft | 431 kts | 356° |
| 2026-05-07 13:58 | 50.45794 | 11.21322 | 29831 ft | 434 kts | 356° |
| 2026-05-07 13:58 | 50.48809 | 11.20871 | 29992 ft | 436 kts | 356° |
| 2026-05-07 13:59 | 50.51829 | 11.20418 | 30004 ft | 436 kts | 356° |
| 2026-05-07 13:59 | 50.57856 | 11.19507 | 30001 ft | 437 kts | 356° |
| 2026-05-07 14:00 | 50.63917 | 11.18587 | 30005 ft | 437 kts | 356° |
| 2026-05-07 14:00 | 50.69989 | 11.17663 | 30015 ft | 437 kts | 356° |
| 2026-05-07 14:01 | 50.76032 | 11.16740 | 30027 ft | 438 kts | 356° |
| 2026-05-07 14:01 | 50.82111 | 11.15808 | 30030 ft | 438 kts | 356° |
| 2026-05-07 14:02 | 50.88189 | 11.14877 | 30043 ft | 439 kts | 356° |
| 2026-05-07 14:02 | 50.94256 | 11.13945 | 30044 ft | 439 kts | 356° |
| 2026-05-07 14:03 | 51.00320 | 11.13010 | 30045 ft | 439 kts | 356° |
| 2026-05-07 14:03 | 51.06416 | 11.12067 | 30040 ft | 439 kts | 356° |
| 2026-05-07 14:04 | 51.12481 | 11.10667 | 30036 ft | 442 kts | 347° |
| 2026-05-07 14:04 | 51.18224 | 11.07247 | 30037 ft | 445 kts | 337° |
| 2026-05-07 14:05 | 51.23883 | 11.03221 | 30034 ft | 445 kts | 337° |
| 2026-05-07 14:05 | 51.29561 | 10.99187 | 30033 ft | 446 kts | 337° |
| 2026-05-07 14:06 | 51.35236 | 10.95203 | 30037 ft | 446 kts | 341° |
| 2026-05-07 14:06 | 51.41278 | 10.92846 | 30038 ft | 444 kts | 354° |
| 2026-05-07 14:07 | 51.47411 | 10.92092 | 30043 ft | 445 kts | 356° |
| 2026-05-07 14:07 | 51.53594 | 10.91329 | 30040 ft | 447 kts | 356° |
| 2026-05-07 14:08 | 51.59829 | 10.90575 | 30044 ft | 448 kts | 356° |
| 2026-05-07 14:08 | 51.66035 | 10.89832 | 30043 ft | 449 kts | 356° |
| 2026-05-07 14:09 | 51.72275 | 10.88932 | 30051 ft | 449 kts | 354° |
| 2026-05-07 14:09 | 51.78499 | 10.87816 | 30052 ft | 449 kts | 354° |
| 2026-05-07 14:10 | 51.84672 | 10.86740 | 30052 ft | 449 kts | 354° |
| 2026-05-07 14:10 | 51.90897 | 10.85852 | 30053 ft | 448 kts | 355° |
| 2026-05-07 14:11 | 51.97110 | 10.85010 | 30060 ft | 447 kts | 355° |
| 2026-05-07 14:11 | 52.03296 | 10.84145 | 30061 ft | 446 kts | 355° |
| 2026-05-07 14:12 | 52.09482 | 10.83268 | 30068 ft | 445 kts | 354° |
| 2026-05-07 14:12 | 52.15645 | 10.82397 | 30069 ft | 445 kts | 354° |
| 2026-05-07 14:13 | 52.21819 | 10.81546 | 30068 ft | 445 kts | 354° |
| 2026-05-07 14:13 | 52.27988 | 10.80694 | 30022 ft | 445 kts | 354° |
| 2026-05-07 14:13 | 52.31084 | 10.80265 | 29751 ft | 444 kts | 354° |
| 2026-05-07 14:14 | 52.34165 | 10.79837 | 29464 ft | 441 kts | 354° |
| 2026-05-07 14:14 | 52.37229 | 10.79644 | 29200 ft | 441 kts | 0° |
| 2026-05-07 14:14 | 52.40286 | 10.79957 | 28914 ft | 442 kts | 3° |
| 2026-05-07 14:14 | 52.43334 | 10.80285 | 28642 ft | 437 kts | 2° |
| 2026-05-07 14:15 | 52.46362 | 10.80584 | 28387 ft | 435 kts | 2° |
| 2026-05-07 14:15 | 52.49388 | 10.80860 | 28107 ft | 435 kts | 2° |
| 2026-05-07 14:15 | 52.52400 | 10.81144 | 27835 ft | 433 kts | 2° |
| 2026-05-07 14:15 | 52.55419 | 10.81444 | 27424 ft | 432 kts | 2° |
| 2026-05-07 14:16 | 52.58432 | 10.81755 | 26828 ft | 432 kts | 2° |
| 2026-05-07 14:16 | 52.61410 | 10.82068 | 26235 ft | 430 kts | 2° |
| 2026-05-07 14:16 | 52.64385 | 10.82384 | 25652 ft | 425 kts | 2° |
| 2026-05-07 14:16 | 52.67301 | 10.82695 | 25140 ft | 418 kts | 2° |
| 2026-05-07 14:17 | 52.70199 | 10.83005 | 24869 ft | 410 kts | 2° |
| 2026-05-07 14:17 | 52.73062 | 10.83310 | 24632 ft | 415 kts | 2° |
| 2026-05-07 14:17 | 52.75942 | 10.83616 | 24387 ft | 414 kts | 2° |
| 2026-05-07 14:17 | 52.78824 | 10.83921 | 24143 ft | 411 kts | 2° |
| 2026-05-07 14:18 | 52.81630 | 10.84214 | 23914 ft | 410 kts | 1° |
| 2026-05-07 14:18 | 52.84481 | 10.84125 | 23688 ft | 408 kts | 353° |
| 2026-05-07 14:18 | 52.87306 | 10.83547 | 23406 ft | 406 kts | 351° |
| 2026-05-07 14:18 | 52.90085 | 10.82976 | 23119 ft | 404 kts | 352° |
| 2026-05-07 14:19 | 52.92881 | 10.82417 | 22851 ft | 402 kts | 352° |
| 2026-05-07 14:19 | 52.95659 | 10.81862 | 22581 ft | 401 kts | 352° |
| 2026-05-07 14:19 | 52.98421 | 10.81306 | 22314 ft | 399 kts | 352° |
| 2026-05-07 14:19 | 53.01184 | 10.80745 | 22041 ft | 398 kts | 352° |
| 2026-05-07 14:20 | 53.03924 | 10.80187 | 21776 ft | 396 kts | 352° |
| 2026-05-07 14:20 | 53.06643 | 10.79632 | 21517 ft | 394 kts | 352° |
| 2026-05-07 14:20 | 53.09391 | 10.79071 | 21247 ft | 393 kts | 352° |
| 2026-05-07 14:20 | 53.12099 | 10.78518 | 20993 ft | 391 kts | 352° |
| 2026-05-07 14:21 | 53.14791 | 10.77966 | 20737 ft | 390 kts | 352° |
| 2026-05-07 14:21 | 53.17447 | 10.77419 | 20492 ft | 389 kts | 352° |
| 2026-05-07 14:21 | 53.20163 | 10.76859 | 20166 ft | 388 kts | 352° |
| 2026-05-07 14:21 | 53.22811 | 10.76314 | 19493 ft | 391 kts | 352° |
| 2026-05-07 14:22 | 53.25557 | 10.75747 | 18566 ft | 397 kts | 352° |